sensor_id;sensor_type;location;lat;lon;timestamp;pressure;altitude;pressure_sealevel;temperature;humidity
9525;BME280;15940;48.734;9.112;2023-04-04T00:00:16;97312.97;;;-0.44;66.93
9525;BME280;15940;48.734;9.112;2023-04-04T00:02:43;97319.84;;;-0.46;67.48
9525;BME280;15940;48.734;9.112;2023-04-04T00:05:10;97309.28;;;-0.57;66.57
9525;BME280;15940;48.734;9.112;2023-04-04T00:07:37;97302.28;;;-0.40;67.66
9525;BME280;15940;48.734;9.112;2023-04-04T00:10:06;97298.47;;;-0.39;66.22
9525;BME280;15940;48.734;9.112;2023-04-04T00:12:34;97297.44;;;-0.49;67.18
9525;BME280;15940;48.734;9.112;2023-04-04T00:15:02;97300.31;;;-0.33;68.65
9525;BME280;15940;48.734;9.112;2023-04-04T00:17:29;97289.91;;;-0.58;66.09
9525;BME280;15940;48.734;9.112;2023-04-04T00:19:56;97297.22;;;-0.65;66.39
9525;BME280;15940;48.734;9.112;2023-04-04T00:22:24;97294.81;;;-0.52;67.43
9525;BME280;15940;48.734;9.112;2023-04-04T00:24:50;97294.34;;;-0.44;68.63
9525;BME280;15940;48.734;9.112;2023-04-04T00:27:19;97291.41;;;-0.53;66.25
9525;BME280;15940;48.734;9.112;2023-04-04T00:29:46;97288.91;;;-0.71;65.93
9525;BME280;15940;48.734;9.112;2023-04-04T00:32:13;97288.84;;;-0.67;66.87
9525;BME280;15940;48.734;9.112;2023-04-04T00:34:41;97284.69;;;-0.68;66.93
9525;BME280;15940;48.734;9.112;2023-04-04T00:37:08;97287.28;;;-0.61;68.21
9525;BME280;15940;48.734;9.112;2023-04-04T00:39:36;97273.00;;;-0.78;66.50
9525;BME280;15940;48.734;9.112;2023-04-04T00:42:04;97277.59;;;-0.82;66.72
9525;BME280;15940;48.734;9.112;2023-04-04T00:44:32;97280.91;;;-0.71;68.75
9525;BME280;15940;48.734;9.112;2023-04-04T00:47:01;97273.72;;;-0.74;67.11
9525;BME280;15940;48.734;9.112;2023-04-04T00:49:28;97272.13;;;-0.68;67.12
9525;BME280;15940;48.734;9.112;2023-04-04T00:51:55;97266.97;;;-0.82;65.59
9525;BME280;15940;48.734;9.112;2023-04-04T00:54:22;97268.50;;;-0.88;65.73
9525;BME280;15940;48.734;9.112;2023-04-04T00:56:49;97267.00;;;-0.89;66.36
9525;BME280;15940;48.734;9.112;2023-04-04T00:59:20;97264.03;;;-0.98;66.98
9525;BME280;15940;48.734;9.112;2023-04-04T01:01:48;97260.63;;;-0.99;68.34
9525;BME280;15940;48.734;9.112;2023-04-04T01:04:16;97262.13;;;-0.94;68.85
9525;BME280;15940;48.734;9.112;2023-04-04T01:06:43;97257.13;;;-0.85;67.46
9525;BME280;15940;48.734;9.112;2023-04-04T01:09:10;97255.81;;;-0.70;68.71
9525;BME280;15940;48.734;9.112;2023-04-04T01:11:37;97252.31;;;-0.60;67.12
9525;BME280;15940;48.734;9.112;2023-04-04T01:14:04;97250.94;;;-0.75;66.54
9525;BME280;15940;48.734;9.112;2023-04-04T01:16:31;97253.75;;;-0.93;65.48
9525;BME280;15940;48.734;9.112;2023-04-04T01:19:01;97256.28;;;-0.78;67.11
9525;BME280;15940;48.734;9.112;2023-04-04T01:21:29;97255.81;;;-0.70;67.15
9525;BME280;15940;48.734;9.112;2023-04-04T01:23:59;97254.28;;;-0.67;68.48
9525;BME280;15940;48.734;9.112;2023-04-04T01:26:29;97253.09;;;-0.63;66.90
9525;BME280;15940;48.734;9.112;2023-04-04T01:28:58;97246.59;;;-0.58;65.96
9525;BME280;15940;48.734;9.112;2023-04-04T01:31:29;97251.53;;;-0.56;67.06
9525;BME280;15940;48.734;9.112;2023-04-04T01:34:14;97247.03;;;-0.63;66.34
9525;BME280;15940;48.734;9.112;2023-04-04T01:36:49;97242.41;;;-0.55;67.93
9525;BME280;15940;48.734;9.112;2023-04-04T01:39:26;97248.59;;;-0.69;66.68
9525;BME280;15940;48.734;9.112;2023-04-04T01:41:59;97248.13;;;-0.61;67.60
9525;BME280;15940;48.734;9.112;2023-04-04T01:44:27;97244.91;;;-0.41;67.68
9525;BME280;15940;48.734;9.112;2023-04-04T01:46:54;97247.56;;;-0.41;67.46
9525;BME280;15940;48.734;9.112;2023-04-04T01:49:21;97240.09;;;-0.53;67.44
9525;BME280;15940;48.734;9.112;2023-04-04T01:51:49;97248.59;;;-0.69;65.72
9525;BME280;15940;48.734;9.112;2023-04-04T01:54:17;97239.41;;;-0.61;68.74
9525;BME280;15940;48.734;9.112;2023-04-04T01:56:44;97240.09;;;-0.57;68.92
9525;BME280;15940;48.734;9.112;2023-04-04T01:59:13;97241.13;;;-0.44;67.44
9525;BME280;15940;48.734;9.112;2023-04-04T02:01:40;97237.66;;;-0.37;67.20
9525;BME280;15940;48.734;9.112;2023-04-04T02:04:08;97242.00;;;-0.20;68.05
9525;BME280;15940;48.734;9.112;2023-04-04T02:06:37;97237.66;;;-0.41;68.16
9525;BME280;15940;48.734;9.112;2023-04-04T02:09:04;97245.41;;;-0.53;67.54
9525;BME280;15940;48.734;9.112;2023-04-04T02:11:31;97242.75;;;-0.53;66.62
9525;BME280;15940;48.734;9.112;2023-04-04T02:13:58;97247.59;;;-0.82;68.12
9525;BME280;15940;48.734;9.112;2023-04-04T02:16:26;97242.97;;;-0.78;68.45
9525;BME280;15940;48.734;9.112;2023-04-04T02:18:53;97242.38;;;-0.93;69.37
9525;BME280;15940;48.734;9.112;2023-04-04T02:21:21;97245.53;;;-0.68;69.64
9525;BME280;15940;48.734;9.112;2023-04-04T02:23:50;97244.09;;;-0.76;68.48
9525;BME280;15940;48.734;9.112;2023-04-04T02:26:17;97241.31;;;-0.62;69.54
9525;BME280;15940;48.734;9.112;2023-04-04T02:28:44;97249.00;;;-0.71;69.29
9525;BME280;15940;48.734;9.112;2023-04-04T02:31:10;97239.56;;;-0.75;68.78
9525;BME280;15940;48.734;9.112;2023-04-04T02:33:39;97243.63;;;-0.64;68.92
9525;BME280;15940;48.734;9.112;2023-04-04T02:36:06;97244.78;;;-0.68;69.15
9525;BME280;15940;48.734;9.112;2023-04-04T02:38:33;97236.50;;;-0.77;68.33
9525;BME280;15940;48.734;9.112;2023-04-04T02:41:01;97234.16;;;-0.68;67.88
9525;BME280;15940;48.734;9.112;2023-04-04T02:43:27;97239.41;;;-0.61;68.25
9525;BME280;15940;48.734;9.112;2023-04-04T02:45:54;97239.41;;;-0.61;69.11
9525;BME280;15940;48.734;9.112;2023-04-04T02:48:21;97234.41;;;-0.55;69.00
9525;BME280;15940;48.734;9.112;2023-04-04T02:50:51;97239.56;;;-0.79;67.94
9525;BME280;15940;48.734;9.112;2023-04-04T02:53:18;97233.50;;;-0.79;69.40
9525;BME280;15940;48.734;9.112;2023-04-04T02:55:45;97242.47;;;-0.63;69.64
9525;BME280;15940;48.734;9.112;2023-04-04T02:58:12;97237.25;;;-0.77;68.85
9525;BME280;15940;48.734;9.112;2023-04-04T03:00:39;97233.25;;;-0.92;69.11
9525;BME280;15940;48.734;9.112;2023-04-04T03:03:06;97231.78;;;-1.00;69.17
9525;BME280;15940;48.734;9.112;2023-04-04T03:05:33;97235.59;;;-1.05;68.42
9525;BME280;15940;48.734;9.112;2023-04-04T03:08:02;97227.72;;;-1.12;69.14
9525;BME280;15940;48.734;9.112;2023-04-04T03:10:29;97231.09;;;-1.08;70.90
9525;BME280;15940;48.734;9.112;2023-04-04T03:12:57;97234.13;;;-0.65;69.36
9525;BME280;15940;48.734;9.112;2023-04-04T03:15:25;97229.13;;;-0.59;68.28
9525;BME280;15940;48.734;9.112;2023-04-04T03:17:52;97235.94;;;-0.99;67.39
9525;BME280;15940;48.734;9.112;2023-04-04T03:20:19;97222.75;;;-1.10;69.25
9525;BME280;15940;48.734;9.112;2023-04-04T03:22:47;97228.16;;;-1.21;69.29
9525;BME280;15940;48.734;9.112;2023-04-04T03:25:16;97225.06;;;-1.16;70.24
9525;BME280;15940;48.734;9.112;2023-04-04T03:27:43;97229.25;;;-1.18;70.62
9525;BME280;15940;48.734;9.112;2023-04-04T03:30:10;97220.72;;;-1.44;69.17
9525;BME280;15940;48.734;9.112;2023-04-04T03:32:38;97223.09;;;-1.56;70.54
9525;BME280;15940;48.734;9.112;2023-04-04T03:35:06;97233.59;;;-1.38;70.87
9525;BME280;15940;48.734;9.112;2023-04-04T03:37:33;97222.69;;;-1.51;69.93
9525;BME280;15940;48.734;9.112;2023-04-04T03:40:00;97224.13;;;-1.43;71.33
9525;BME280;15940;48.734;9.112;2023-04-04T03:42:32;97219.28;;;-1.55;71.13
9525;BME280;15940;48.734;9.112;2023-04-04T03:45:00;97225.38;;;-1.58;72.19
9525;BME280;15940;48.734;9.112;2023-04-04T03:47:27;97230.19;;;-1.39;71.30
9525;BME280;15940;48.734;9.112;2023-04-04T03:49:54;97225.97;;;-1.36;71.44
9525;BME280;15940;48.734;9.112;2023-04-04T03:52:21;97227.75;;;-1.19;71.55
9525;BME280;15940;48.734;9.112;2023-04-04T03:54:48;97224.44;;;-1.30;70.94
9525;BME280;15940;48.734;9.112;2023-04-04T03:57:15;97218.13;;;-1.51;69.31
9525;BME280;15940;48.734;9.112;2023-04-04T03:59:44;97219.75;;;-1.71;71.60
9525;BME280;15940;48.734;9.112;2023-04-04T04:02:10;97227.38;;;-1.80;72.57
9525;BME280;15940;48.734;9.112;2023-04-04T04:04:37;97226.38;;;-1.38;71.63
9525;BME280;15940;48.734;9.112;2023-04-04T04:07:04;97223.78;;;-1.49;70.11
9525;BME280;15940;48.734;9.112;2023-04-04T04:09:31;97226.72;;;-1.36;71.67
9525;BME280;15940;48.734;9.112;2023-04-04T04:11:58;97222.34;;;-1.08;71.07
9525;BME280;15940;48.734;9.112;2023-04-04T04:14:26;97231.69;;;-0.90;70.29
9525;BME280;15940;48.734;9.112;2023-04-04T04:16:54;97229.66;;;-0.75;70.55
9525;BME280;15940;48.734;9.112;2023-04-04T04:19:21;97223.09;;;-0.67;68.17
9525;BME280;15940;48.734;9.112;2023-04-04T04:21:48;97228.31;;;-0.97;69.12
9525;BME280;15940;48.734;9.112;2023-04-04T04:24:15;97229.47;;;-0.98;69.23
9525;BME280;15940;48.734;9.112;2023-04-04T04:26:42;97225.72;;;-1.04;68.96
9525;BME280;15940;48.734;9.112;2023-04-04T04:29:09;97226.47;;;-1.00;69.02
9525;BME280;15940;48.734;9.112;2023-04-04T04:31:37;97225.28;;;-0.96;70.69
9525;BME280;15940;48.734;9.112;2023-04-04T04:34:06;97228.38;;;-1.01;69.19
9525;BME280;15940;48.734;9.112;2023-04-04T04:36:33;97224.44;;;-1.34;69.39
9525;BME280;15940;48.734;9.112;2023-04-04T04:39:01;97225.44;;;-1.13;71.05
9525;BME280;15940;48.734;9.112;2023-04-04T04:41:28;97220.94;;;-1.24;68.98
9525;BME280;15940;48.734;9.112;2023-04-04T04:43:55;97226.66;;;-1.22;70.04
9525;BME280;15940;48.734;9.112;2023-04-04T04:46:22;97225.16;;;-1.26;70.69
9525;BME280;15940;48.734;9.112;2023-04-04T04:48:49;97224.66;;;-1.14;69.96
9525;BME280;15940;48.734;9.112;2023-04-04T04:51:17;97226.16;;;-1.09;69.62
9525;BME280;15940;48.734;9.112;2023-04-04T04:53:44;97237.72;;;-1.34;68.24
9525;BME280;15940;48.734;9.112;2023-04-04T04:56:11;97234.31;;;-1.31;70.31
9525;BME280;15940;48.734;9.112;2023-04-04T04:58:38;97244.53;;;-1.33;70.96
9525;BME280;15940;48.734;9.112;2023-04-04T05:01:05;97241.00;;;-1.12;70.33
9525;BME280;15940;48.734;9.112;2023-04-04T05:03:32;97243.09;;;-1.41;68.19
9525;BME280;15940;48.734;9.112;2023-04-04T05:05:59;97242.34;;;-1.45;70.71
9525;BME280;15940;48.734;9.112;2023-04-04T05:08:28;97241.13;;;-1.33;69.93
9525;BME280;15940;48.734;9.112;2023-04-04T05:10:55;97238.91;;;-1.38;69.44
9525;BME280;15940;48.734;9.112;2023-04-04T05:13:22;97241.78;;;-1.70;69.16
9525;BME280;15940;48.734;9.112;2023-04-04T05:15:49;97236.91;;;-1.86;68.40
9525;BME280;15940;48.734;9.112;2023-04-04T05:18:16;97248.75;;;-2.05;71.69
9525;BME280;15940;48.734;9.112;2023-04-04T05:20:50;97242.53;;;-1.74;69.92
9525;BME280;15940;48.734;9.112;2023-04-04T05:23:17;97238.88;;;-1.97;69.36
9525;BME280;15940;48.734;9.112;2023-04-04T05:25:48;97232.41;;;-2.00;69.44
9525;BME280;15940;48.734;9.112;2023-04-04T05:28:15;97241.47;;;-1.90;71.43
9525;BME280;15940;48.734;9.112;2023-04-04T05:30:42;97243.00;;;-1.93;70.29
9525;BME280;15940;48.734;9.112;2023-04-04T05:33:09;97239.88;;;-1.74;70.50
9525;BME280;15940;48.734;9.112;2023-04-04T05:35:36;97238.41;;;-1.78;69.57
9525;BME280;15940;48.734;9.112;2023-04-04T05:38:03;97244.44;;;-1.70;70.93
9525;BME280;15940;48.734;9.112;2023-04-04T05:40:30;97251.19;;;-1.62;69.24
9525;BME280;15940;48.734;9.112;2023-04-04T05:42:59;97253.44;;;-1.57;69.62
9525;BME280;15940;48.734;9.112;2023-04-04T05:45:29;97254.53;;;-1.48;68.94
9525;BME280;15940;48.734;9.112;2023-04-04T05:47:56;97243.00;;;-1.27;69.11
9525;BME280;15940;48.734;9.112;2023-04-04T05:50:23;97245.28;;;-1.29;67.34
9525;BME280;15940;48.734;9.112;2023-04-04T05:52:52;97253.47;;;-1.05;68.14
9525;BME280;15940;48.734;9.112;2023-04-04T05:55:21;97252.13;;;-1.28;66.82
9525;BME280;15940;48.734;9.112;2023-04-04T05:57:48;97259.66;;;-1.19;68.64
9525;BME280;15940;48.734;9.112;2023-04-04T06:00:18;97257.28;;;-1.06;67.39
9525;BME280;15940;48.734;9.112;2023-04-04T06:02:45;97263.09;;;-1.22;65.97
9525;BME280;15940;48.734;9.112;2023-04-04T06:05:13;97252.50;;;-1.29;67.46
9525;BME280;15940;48.734;9.112;2023-04-04T06:07:40;97264.03;;;-0.95;66.74
9525;BME280;15940;48.734;9.112;2023-04-04T06:10:08;97253.91;;;-1.14;65.30
9525;BME280;15940;48.734;9.112;2023-04-04T06:12:35;97258.75;;;-1.02;66.58
9525;BME280;15940;48.734;9.112;2023-04-04T06:15:02;97254.91;;;-0.97;64.31
9525;BME280;15940;48.734;9.112;2023-04-04T06:17:30;97261.44;;;-1.02;65.56
9525;BME280;15940;48.734;9.112;2023-04-04T06:19:57;97257.63;;;-1.04;64.96
9525;BME280;15940;48.734;9.112;2023-04-04T06:22:24;97263.16;;;-0.81;66.41
9525;BME280;15940;48.734;9.112;2023-04-04T06:24:51;97257.22;;;-0.58;65.79
9525;BME280;15940;48.734;9.112;2023-04-04T06:27:18;97259.69;;;-0.37;64.71
9525;BME280;15940;48.734;9.112;2023-04-04T06:29:45;97252.28;;;-0.22;64.69
9525;BME280;15940;48.734;9.112;2023-04-04T06:32:12;97245.84;;;0.10;63.83
9525;BME280;15940;48.734;9.112;2023-04-04T06:34:41;97248.53;;;0.10;60.34
9525;BME280;15940;48.734;9.112;2023-04-04T06:37:08;97246.09;;;0.19;61.25
9525;BME280;15940;48.734;9.112;2023-04-04T06:39:35;97248.44;;;0.44;63.35
9525;BME280;15940;48.734;9.112;2023-04-04T06:42:02;97253.13;;;0.63;61.75
9525;BME280;15940;48.734;9.112;2023-04-04T06:44:29;97249.38;;;0.84;60.85
9525;BME280;15940;48.734;9.112;2023-04-04T06:46:56;97251.84;;;0.98;59.43
9525;BME280;15940;48.734;9.112;2023-04-04T06:49:23;97259.50;;;0.96;58.51
9525;BME280;15940;48.734;9.112;2023-04-04T06:51:51;97248.66;;;1.07;59.58
9525;BME280;15940;48.734;9.112;2023-04-04T06:54:19;97251.38;;;1.03;58.25
9525;BME280;15940;48.734;9.112;2023-04-04T06:56:46;97252.94;;;1.01;57.70
9525;BME280;15940;48.734;9.112;2023-04-04T06:59:12;97251.72;;;1.29;59.15
9525;BME280;15940;48.734;9.112;2023-04-04T07:01:39;97248.19;;;1.35;57.43
9525;BME280;15940;48.734;9.112;2023-04-04T07:04:06;97246.00;;;1.50;58.21
9525;BME280;15940;48.734;9.112;2023-04-04T07:06:33;97238.22;;;1.79;58.09
9525;BME280;15940;48.734;9.112;2023-04-04T07:09:02;97241.25;;;1.81;57.40
9525;BME280;15940;48.734;9.112;2023-04-04T07:11:29;97237.13;;;1.96;57.55
9525;BME280;15940;48.734;9.112;2023-04-04T07:13:56;97241.25;;;1.81;55.17
9525;BME280;15940;48.734;9.112;2023-04-04T07:16:23;97240.75;;;2.06;55.69
9525;BME280;15940;48.734;9.112;2023-04-04T07:18:50;97241.75;;;2.32;56.28
9525;BME280;15940;48.734;9.112;2023-04-04T07:21:17;97240.22;;;2.67;53.08
9525;BME280;15940;48.734;9.112;2023-04-04T07:23:45;97253.84;;;2.89;52.54
9525;BME280;15940;48.734;9.112;2023-04-04T07:26:13;97248.34;;;2.96;51.17
9525;BME280;15940;48.734;9.112;2023-04-04T07:28:40;97246.75;;;2.99;50.96
9525;BME280;15940;48.734;9.112;2023-04-04T07:31:07;97246.09;;;2.95;50.68
9525;BME280;15940;48.734;9.112;2023-04-04T07:33:34;97241.81;;;2.97;50.23
9525;BME280;15940;48.734;9.112;2023-04-04T07:36:01;97251.78;;;3.13;50.50
9525;BME280;15940;48.734;9.112;2023-04-04T07:38:28;97246.81;;;3.11;50.49
9525;BME280;15940;48.734;9.112;2023-04-04T07:40:55;97242.88;;;3.32;49.59
9525;BME280;15940;48.734;9.112;2023-04-04T07:43:24;97239.56;;;3.41;50.56
9525;BME280;15940;48.734;9.112;2023-04-04T07:45:53;97251.75;;;3.87;50.34
9525;BME280;15940;48.734;9.112;2023-04-04T07:48:19;97244.34;;;4.20;48.33
9525;BME280;15940;48.734;9.112;2023-04-04T07:50:46;97244.47;;;4.29;47.70
9525;BME280;15940;48.734;9.112;2023-04-04T07:53:13;97252.69;;;4.10;47.79
9525;BME280;15940;48.734;9.112;2023-04-04T07:55:40;97251.06;;;3.99;46.95
9525;BME280;15940;48.734;9.112;2023-04-04T07:58:07;97249.13;;;4.00;48.57
9525;BME280;15940;48.734;9.112;2023-04-04T08:00:35;97238.88;;;4.11;48.49
9525;BME280;15940;48.734;9.112;2023-04-04T08:03:02;97246.41;;;4.42;48.44
9525;BME280;15940;48.734;9.112;2023-04-04T08:05:29;97252.72;;;5.11;47.66
9525;BME280;15940;48.734;9.112;2023-04-04T08:07:56;97242.16;;;5.64;46.21
9525;BME280;15940;48.734;9.112;2023-04-04T08:10:23;97240.84;;;5.69;46.58
9525;BME280;15940;48.734;9.112;2023-04-04T08:12:50;97241.84;;;5.84;44.82
9525;BME280;15940;48.734;9.112;2023-04-04T08:15:17;97243.19;;;5.45;44.45
9525;BME280;15940;48.734;9.112;2023-04-04T08:17:46;97238.09;;;5.25;46.06
9525;BME280;15940;48.734;9.112;2023-04-04T08:20:13;97238.00;;;5.16;46.92
9525;BME280;15940;48.734;9.112;2023-04-04T08:22:41;97238.63;;;5.20;46.27
9525;BME280;15940;48.734;9.112;2023-04-04T08:25:09;97245.78;;;5.36;45.46
9525;BME280;15940;48.734;9.112;2023-04-04T08:27:39;97248.56;;;5.45;44.79
9525;BME280;15940;48.734;9.112;2023-04-04T08:30:09;97242.50;;;5.54;44.90
9525;BME280;15940;48.734;9.112;2023-04-04T08:32:37;97248.78;;;5.72;45.14
9525;BME280;15940;48.734;9.112;2023-04-04T08:35:06;97241.41;;;5.64;45.12
9525;BME280;15940;48.734;9.112;2023-04-04T08:37:33;97238.56;;;5.45;45.61
9525;BME280;15940;48.734;9.112;2023-04-04T08:40:01;97247.09;;;5.31;44.89
9525;BME280;15940;48.734;9.112;2023-04-04T08:42:30;97253.41;;;5.72;45.98
9525;BME280;15940;48.734;9.112;2023-04-04T08:45:00;97245.59;;;6.30;44.39
9525;BME280;15940;48.734;9.112;2023-04-04T08:47:30;97238.22;;;6.93;44.05
9525;BME280;15940;48.734;9.112;2023-04-04T08:49:59;97237.25;;;7.45;43.44
9525;BME280;15940;48.734;9.112;2023-04-04T08:52:27;97236.16;;;8.16;40.28
9525;BME280;15940;48.734;9.112;2023-04-04T08:54:56;97230.13;;;8.82;41.09
9525;BME280;15940;48.734;9.112;2023-04-04T08:57:23;97228.69;;;8.96;39.24
9525;BME280;15940;48.734;9.112;2023-04-04T08:59:50;97234.31;;;8.83;38.00
9525;BME280;15940;48.734;9.112;2023-04-04T09:02:23;97242.69;;;8.43;38.61
9525;BME280;15940;48.734;9.112;2023-04-04T09:04:52;97242.19;;;7.65;41.09
9525;BME280;15940;48.734;9.112;2023-04-04T09:07:21;97239.19;;;7.27;40.44
9525;BME280;15940;48.734;9.112;2023-04-04T09:09:49;97248.63;;;7.31;41.30
9525;BME280;15940;48.734;9.112;2023-04-04T09:12:18;97241.91;;;7.91;41.06
9525;BME280;15940;48.734;9.112;2023-04-04T09:14:46;97248.47;;;6.67;41.96
9525;BME280;15940;48.734;9.112;2023-04-04T09:17:16;97253.59;;;6.83;44.47
9525;BME280;15940;48.734;9.112;2023-04-04T09:19:43;97255.31;;;6.06;44.19
9525;BME280;15940;48.734;9.112;2023-04-04T09:22:10;97258.06;;;5.93;45.21
9525;BME280;15940;48.734;9.112;2023-04-04T09:24:38;97250.00;;;6.46;43.38
9525;BME280;15940;48.734;9.112;2023-04-04T09:27:08;97246.16;;;6.97;42.83
9525;BME280;15940;48.734;9.112;2023-04-04T09:29:37;97249.75;;;6.94;42.10
9525;BME280;15940;48.734;9.112;2023-04-04T09:32:07;97239.94;;;7.82;43.82
9525;BME280;15940;48.734;9.112;2023-04-04T09:34:35;97237.00;;;8.50;42.49
9525;BME280;15940;48.734;9.112;2023-04-04T09:37:03;97240.50;;;8.74;40.36
9525;BME280;15940;48.734;9.112;2023-04-04T09:39:31;97232.91;;;9.21;39.29
9525;BME280;15940;48.734;9.112;2023-04-04T09:42:00;97243.41;;;9.42;37.84
9525;BME280;15940;48.734;9.112;2023-04-04T09:44:29;97250.34;;;8.86;37.75
9525;BME280;15940;48.734;9.112;2023-04-04T09:47:24;97249.53;;;8.62;37.63
9525;BME280;15940;48.734;9.112;2023-04-04T09:49:52;97234.31;;;8.31;38.56
9525;BME280;15940;48.734;9.112;2023-04-04T09:52:20;97250.63;;;8.55;39.70
9525;BME280;15940;48.734;9.112;2023-04-04T09:54:55;97244.63;;;8.51;37.61
9525;BME280;15940;48.734;9.112;2023-04-04T09:57:25;97247.97;;;8.79;37.80
9525;BME280;15940;48.734;9.112;2023-04-04T09:59:56;97240.53;;;9.46;39.86
9525;BME280;15940;48.734;9.112;2023-04-04T10:02:24;97239.22;;;8.51;36.47
9525;BME280;15940;48.734;9.112;2023-04-04T10:04:52;97245.00;;;8.26;42.14
9525;BME280;15940;48.734;9.112;2023-04-04T10:07:20;97241.16;;;7.63;38.34
9525;BME280;15940;48.734;9.112;2023-04-04T10:09:48;97235.75;;;7.90;40.75
9525;BME280;15940;48.734;9.112;2023-04-04T10:12:21;97236.53;;;8.51;40.29
9525;BME280;15940;48.734;9.112;2023-04-04T10:14:56;97234.53;;;8.61;39.79
9525;BME280;15940;48.734;9.112;2023-04-04T10:17:24;97243.50;;;8.76;43.17
9525;BME280;15940;48.734;9.112;2023-04-04T10:19:57;97248.03;;;8.61;39.56
9525;BME280;15940;48.734;9.112;2023-04-04T10:22:26;97237.81;;;8.98;36.93
9525;BME280;15940;48.734;9.112;2023-04-04T10:24:53;97237.66;;;8.36;38.76
9525;BME280;15940;48.734;9.112;2023-04-04T10:27:20;97237.63;;;8.78;40.55
9525;BME280;15940;48.734;9.112;2023-04-04T10:29:47;97233.84;;;8.42;37.66
9525;BME280;15940;48.734;9.112;2023-04-04T10:32:22;97233.34;;;7.83;39.06
9525;BME280;15940;48.734;9.112;2023-04-04T10:34:59;97224.16;;;8.17;41.56
9525;BME280;15940;48.734;9.112;2023-04-04T10:37:31;97225.28;;;8.86;40.73
9525;BME280;15940;48.734;9.112;2023-04-04T10:40:04;97224.53;;;8.85;37.48
9525;BME280;15940;48.734;9.112;2023-04-04T10:42:38;97224.69;;;9.39;42.22
9525;BME280;15940;48.734;9.112;2023-04-04T10:45:08;97226.25;;;9.45;41.32
9525;BME280;15940;48.734;9.112;2023-04-04T10:47:38;97233.81;;;9.41;40.85
9525;BME280;15940;48.734;9.112;2023-04-04T10:50:07;97231.41;;;9.43;41.38
9525;BME280;15940;48.734;9.112;2023-04-04T10:52:36;97228.13;;;9.15;38.02
9525;BME280;15940;48.734;9.112;2023-04-04T10:55:07;97231.84;;;8.61;37.81
9525;BME280;15940;48.734;9.112;2023-04-04T10:57:37;97210.94;;;8.71;38.84
9525;BME280;15940;48.734;9.112;2023-04-04T11:00:08;97203.97;;;8.88;41.22
9525;BME280;15940;48.734;9.112;2023-04-04T11:02:48;97211.97;;;9.30;39.95
9525;BME280;15940;48.734;9.112;2023-04-04T11:05:22;97222.25;;;8.93;39.02
9525;BME280;15940;48.734;9.112;2023-04-04T11:07:57;97212.84;;;8.79;39.22
9525;BME280;15940;48.734;9.112;2023-04-04T11:10:27;97207.41;;;8.88;39.00
9525;BME280;15940;48.734;9.112;2023-04-04T11:12:56;97207.91;;;9.11;40.00
9525;BME280;15940;48.734;9.112;2023-04-04T11:15:44;97211.09;;;8.76;37.04
9525;BME280;15940;48.734;9.112;2023-04-04T11:18:13;97207.22;;;8.35;39.29
9525;BME280;15940;48.734;9.112;2023-04-04T11:20:41;97207.63;;;8.43;43.00
9525;BME280;15940;48.734;9.112;2023-04-04T11:23:16;97210.19;;;8.70;40.58
9525;BME280;15940;48.734;9.112;2023-04-04T11:25:52;97204.00;;;8.79;39.81
9525;BME280;15940;48.734;9.112;2023-04-04T11:28:44;97201.84;;;9.16;40.18
9525;BME280;15940;48.734;9.112;2023-04-04T11:31:28;97188.09;;;9.29;40.78
9525;BME280;15940;48.734;9.112;2023-04-04T11:34:03;97210.56;;;9.35;40.27
9525;BME280;15940;48.734;9.112;2023-04-04T11:36:55;97201.97;;;8.98;38.56
9525;BME280;15940;48.734;9.112;2023-04-04T11:39:27;97208.56;;;8.97;41.44
9525;BME280;15940;48.734;9.112;2023-04-04T11:41:59;97195.00;;;8.82;35.95
9525;BME280;15940;48.734;9.112;2023-04-04T11:44:29;97198.16;;;9.04;38.98
9525;BME280;15940;48.734;9.112;2023-04-04T11:47:01;97197.75;;;8.97;39.75
9525;BME280;15940;48.734;9.112;2023-04-04T11:49:35;97201.75;;;9.10;37.94
9525;BME280;15940;48.734;9.112;2023-04-04T11:52:06;97195.59;;;9.10;39.21
9525;BME280;15940;48.734;9.112;2023-04-04T11:54:34;97202.41;;;9.44;37.73
9525;BME280;15940;48.734;9.112;2023-04-04T11:57:02;97194.06;;;9.09;37.16
9525;BME280;15940;48.734;9.112;2023-04-04T11:59:31;97194.78;;;8.95;37.03
9525;BME280;15940;48.734;9.112;2023-04-04T12:01:59;97196.69;;;9.03;37.27
9525;BME280;15940;48.734;9.112;2023-04-04T12:04:27;97195.47;;;9.04;35.96
9525;BME280;15940;48.734;9.112;2023-04-04T12:06:56;97185.56;;;9.25;37.20
9525;BME280;15940;48.734;9.112;2023-04-04T12:09:24;97179.38;;;9.49;40.40
9525;BME280;15940;48.734;9.112;2023-04-04T12:11:54;97185.31;;;9.77;40.42
9525;BME280;15940;48.734;9.112;2023-04-04T12:14:22;97189.97;;;9.91;35.88
9525;BME280;15940;48.734;9.112;2023-04-04T12:16:52;97178.59;;;9.87;36.57
9525;BME280;15940;48.734;9.112;2023-04-04T12:19:19;97190.28;;;9.54;35.90
9525;BME280;15940;48.734;9.112;2023-04-04T12:21:49;97184.97;;;9.45;37.36
9525;BME280;15940;48.734;9.112;2023-04-04T12:24:18;97184.34;;;9.50;38.38
9525;BME280;15940;48.734;9.112;2023-04-04T12:26:48;97172.69;;;9.59;37.41
9525;BME280;15940;48.734;9.112;2023-04-04T12:29:17;97183.38;;;9.14;39.33
9525;BME280;15940;48.734;9.112;2023-04-04T12:31:45;97177.19;;;9.23;37.42
9525;BME280;15940;48.734;9.112;2023-04-04T12:34:17;97175.75;;;9.52;42.94
9525;BME280;15940;48.734;9.112;2023-04-04T12:36:46;97177.19;;;9.38;35.65
9525;BME280;15940;48.734;9.112;2023-04-04T12:39:15;97171.94;;;9.58;38.95
9525;BME280;15940;48.734;9.112;2023-04-04T12:41:56;97175.22;;;9.92;38.97
9525;BME280;15940;48.734;9.112;2023-04-04T12:44:29;97160.84;;;10.00;36.89
9525;BME280;15940;48.734;9.112;2023-04-04T12:46:57;97165.63;;;10.06;35.62
9525;BME280;15940;48.734;9.112;2023-04-04T12:49:29;97175.63;;;9.46;35.33
9525;BME280;15940;48.734;9.112;2023-04-04T12:51:57;97157.38;;;9.17;35.05
9525;BME280;15940;48.734;9.112;2023-04-04T12:54:31;97159.63;;;9.19;38.42
9525;BME280;15940;48.734;9.112;2023-04-04T12:57:02;97158.38;;;9.43;36.24
9525;BME280;15940;48.734;9.112;2023-04-04T12:59:32;97149.53;;;9.43;36.37
9525;BME280;15940;48.734;9.112;2023-04-04T13:02:00;97161.41;;;9.22;37.05
9525;BME280;15940;48.734;9.112;2023-04-04T13:04:28;97153.25;;;9.45;37.90
9525;BME280;15940;48.734;9.112;2023-04-04T13:06:55;97156.19;;;9.71;40.94
9525;BME280;15940;48.734;9.112;2023-04-04T13:09:24;97153.28;;;9.75;37.33
9525;BME280;15940;48.734;9.112;2023-04-04T13:12:07;97150.78;;;10.01;36.30
9525;BME280;15940;48.734;9.112;2023-04-04T13:15:00;97146.78;;;10.26;37.48
9525;BME280;15940;48.734;9.112;2023-04-04T13:17:42;97148.03;;;10.45;39.13
9525;BME280;15940;48.734;9.112;2023-04-04T13:20:10;97141.19;;;10.50;35.41
9525;BME280;15940;48.734;9.112;2023-04-04T13:22:39;97132.38;;;10.35;35.70
9525;BME280;15940;48.734;9.112;2023-04-04T13:25:08;97144.69;;;10.36;37.99